sensor_id;sensor_type;location;lat;lon;timestamp;pressure;altitude;pressure_sealevel;temperature;humidity
17060;BME280;8646;49.716;9.266;2023-05-02T00:02:29;100341.41;;;12.14;72.33
17060;BME280;8646;49.716;9.266;2023-05-02T00:05:33;100345.09;;;12.13;72.40
17060;BME280;8646;49.716;9.266;2023-05-02T00:08:37;100344.34;;;12.10;72.45
17060;BME280;8646;49.716;9.266;2023-05-02T00:11:40;100347.13;;;12.08;72.65
17060;BME280;8646;49.716;9.266;2023-05-02T00:14:43;100349.06;;;12.06;72.75
17060;BME280;8646;49.716;9.266;2023-05-02T00:17:46;100350.94;;;12.04;72.55
17060;BME280;8646;49.716;9.266;2023-05-02T00:20:49;100348.25;;;12.04;72.53
17060;BME280;8646;49.716;9.266;2023-05-02T00:23:53;100358.13;;;12.05;72.67
17060;BME280;8646;49.716;9.266;2023-05-02T00:26:57;100353.59;;;12.06;72.93
17060;BME280;8646;49.716;9.266;2023-05-02T00:30:00;100347.28;;;12.05;72.86
17060;BME280;8646;49.716;9.266;2023-05-02T00:33:03;100355.34;;;12.07;72.73
17060;BME280;8646;49.716;9.266;2023-05-02T00:36:12;100350.06;;;12.04;73.00
17060;BME280;8646;49.716;9.266;2023-05-02T00:39:16;100351.97;;;12.02;73.34
17060;BME280;8646;49.716;9.266;2023-05-02T00:42:19;100355.56;;;12.02;73.34
17060;BME280;8646;49.716;9.266;2023-05-02T00:45:22;100351.91;;;12.03;73.14
17060;BME280;8646;49.716;9.266;2023-05-02T00:48:25;100344.00;;;11.99;73.55
17060;BME280;8646;49.716;9.266;2023-05-02T00:51:28;100350.44;;;11.96;73.51
17060;BME280;8646;49.716;9.266;2023-05-02T00:54:32;100350.44;;;11.96;73.69
17060;BME280;8646;49.716;9.266;2023-05-02T00:57:35;100353.16;;;11.96;73.88
17060;BME280;8646;49.716;9.266;2023-05-02T01:00:58;100349.69;;;11.93;73.87
17060;BME280;8646;49.716;9.266;2023-05-02T01:04:15;100347.88;;;11.93;73.79
17060;BME280;8646;49.716;9.266;2023-05-02T01:07:33;100353.22;;;11.95;73.68
17060;BME280;8646;49.716;9.266;2023-05-02T01:10:47;100361.34;;;11.95;73.60
17060;BME280;8646;49.716;9.266;2023-05-02T01:13:52;100359.66;;;11.92;74.02
17060;BME280;8646;49.716;9.266;2023-05-02T01:16:57;100378.81;;;11.89;74.10
17060;BME280;8646;49.716;9.266;2023-05-02T01:20:07;100370.59;;;11.91;74.24
17060;BME280;8646;49.716;9.266;2023-05-02T01:23:16;100375.16;;;11.90;74.50
17060;BME280;8646;49.716;9.266;2023-05-02T01:26:29;100384.00;;;11.94;74.01
17060;BME280;8646;49.716;9.266;2023-05-02T01:29:36;100390.53;;;11.90;74.42
17060;BME280;8646;49.716;9.266;2023-05-02T01:32:43;100383.34;;;11.89;74.47
17060;BME280;8646;49.716;9.266;2023-05-02T01:35:49;100386.13;;;11.87;74.91
17060;BME280;8646;49.716;9.266;2023-05-02T01:38:53;100396.31;;;11.82;75.44
17060;BME280;8646;49.716;9.266;2023-05-02T01:41:58;100393.59;;;11.82;75.91
17060;BME280;8646;49.716;9.266;2023-05-02T01:45:07;100397.72;;;11.70;76.34
17060;BME280;8646;49.716;9.266;2023-05-02T01:48:11;100406.00;;;11.67;76.83
17060;BME280;8646;49.716;9.266;2023-05-02T01:51:16;100399.91;;;11.62;77.36
17060;BME280;8646;49.716;9.266;2023-05-02T01:54:22;100403.78;;;11.57;77.34
17060;BME280;8646;49.716;9.266;2023-05-02T01:57:26;100410.22;;;11.54;77.49
17060;BME280;8646;49.716;9.266;2023-05-02T02:00:31;100420.03;;;11.57;77.49
17060;BME280;8646;49.716;9.266;2023-05-02T02:03:35;100414.69;;;11.55;77.66
17060;BME280;8646;49.716;9.266;2023-05-02T02:06:38;100425.00;;;11.47;77.99
17060;BME280;8646;49.716;9.266;2023-05-02T02:09:44;100430.53;;;11.44;78.02
17060;BME280;8646;49.716;9.266;2023-05-02T02:12:50;100434.34;;;11.40;78.21
17060;BME280;8646;49.716;9.266;2023-05-02T02:15:58;100432.56;;;11.39;78.31
17060;BME280;8646;49.716;9.266;2023-05-02T02:19:06;100438.00;;;11.39;78.47
17060;BME280;8646;49.716;9.266;2023-05-02T02:22:12;100436.22;;;11.38;78.75
17060;BME280;8646;49.716;9.266;2023-05-02T02:25:16;100440.84;;;11.36;78.71
17060;BME280;8646;49.716;9.266;2023-05-02T02:28:20;100441.59;;;11.39;78.62
17060;BME280;8646;49.716;9.266;2023-05-02T02:31:29;100443.53;;;11.36;78.85
17060;BME280;8646;49.716;9.266;2023-05-02T02:34:32;100447.06;;;11.38;78.89
17060;BME280;8646;49.716;9.266;2023-05-02T02:37:39;100447.91;;;11.40;78.77
17060;BME280;8646;49.716;9.266;2023-05-02T02:40:46;100451.31;;;11.43;78.38
17060;BME280;8646;49.716;9.266;2023-05-02T02:43:59;100457.63;;;11.44;78.18
17060;BME280;8646;49.716;9.266;2023-05-02T02:47:08;100458.41;;;11.47;78.65
17060;BME280;8646;49.716;9.266;2023-05-02T02:50:16;100457.63;;;11.44;78.79
17060;BME280;8646;49.716;9.266;2023-05-02T02:53:26;100465.97;;;11.39;79.24
17060;BME280;8646;49.716;9.266;2023-05-02T02:56:37;100470.56;;;11.37;79.17
17060;BME280;8646;49.716;9.266;2023-05-02T02:59:48;100472.75;;;11.29;78.99
17060;BME280;8646;49.716;9.266;2023-05-02T03:02:53;100478.44;;;11.23;79.53
17060;BME280;8646;49.716;9.266;2023-05-02T03:05:58;100477.75;;;11.18;79.22
17060;BME280;8646;49.716;9.266;2023-05-02T03:09:01;100479.69;;;11.15;79.33
17060;BME280;8646;49.716;9.266;2023-05-02T03:12:04;100485.50;;;11.05;79.64
17060;BME280;8646;49.716;9.266;2023-05-02T03:15:31;100483.94;;;11.00;80.00
17060;BME280;8646;49.716;9.266;2023-05-02T03:18:43;100489.69;;;10.92;79.86
17060;BME280;8646;49.716;9.266;2023-05-02T03:21:46;100494.38;;;10.87;79.98
17060;BME280;8646;49.716;9.266;2023-05-02T03:24:49;100499.13;;;10.82;79.90
17060;BME280;8646;49.716;9.266;2023-05-02T03:27:52;100494.78;;;10.78;80.29
17060;BME280;8646;49.716;9.266;2023-05-02T03:30:55;100502.19;;;10.73;80.39
17060;BME280;8646;49.716;9.266;2023-05-02T03:33:59;100505.09;;;10.68;80.80
17060;BME280;8646;49.716;9.266;2023-05-02T03:37:02;100503.44;;;10.64;81.05
17060;BME280;8646;49.716;9.266;2023-05-02T03:40:06;100505.31;;;10.62;80.72
17060;BME280;8646;49.716;9.266;2023-05-02T03:43:09;100510.88;;;10.59;81.16
17060;BME280;8646;49.716;9.266;2023-05-02T03:46:13;100516.28;;;10.59;81.20
17060;BME280;8646;49.716;9.266;2023-05-02T03:49:17;100520.81;;;10.59;81.08
17060;BME280;8646;49.716;9.266;2023-05-02T03:52:21;100528.34;;;10.51;81.49
17060;BME280;8646;49.716;9.266;2023-05-02T03:55:25;100527.66;;;10.46;81.65
17060;BME280;8646;49.716;9.266;2023-05-02T03:58:28;100526.09;;;10.39;81.51
17060;BME280;8646;49.716;9.266;2023-05-02T04:01:31;100539.88;;;10.32;81.75
17060;BME280;8646;49.716;9.266;2023-05-02T04:04:36;100533.25;;;10.16;81.85
17060;BME280;8646;49.716;9.266;2023-05-02T04:07:39;100544.69;;;10.24;82.27
17060;BME280;8646;49.716;9.266;2023-05-02T04:10:42;100553.13;;;10.15;82.44
17060;BME280;8646;49.716;9.266;2023-05-02T04:13:44;100555.03;;;10.13;82.84
17060;BME280;8646;49.716;9.266;2023-05-02T04:16:47;100560.44;;;10.13;82.60
17060;BME280;8646;49.716;9.266;2023-05-02T04:19:52;100561.28;;;10.14;82.58
17060;BME280;8646;49.716;9.266;2023-05-02T04:22:55;100565.69;;;10.18;82.62
17060;BME280;8646;49.716;9.266;2023-05-02T04:25:57;100567.28;;;10.23;82.58
17060;BME280;8646;49.716;9.266;2023-05-02T04:29:00;100579.63;;;10.30;82.48
17060;BME280;8646;49.716;9.266;2023-05-02T04:32:03;100583.81;;;10.39;82.22
17060;BME280;8646;49.716;9.266;2023-05-02T04:35:08;100590.00;;;10.43;82.34
17060;BME280;8646;49.716;9.266;2023-05-02T04:38:11;100590.59;;;10.51;81.78
17060;BME280;8646;49.716;9.266;2023-05-02T04:41:14;100601.06;;;10.60;82.00
17060;BME280;8646;49.716;9.266;2023-05-02T04:44:18;100601.72;;;10.66;81.62
17060;BME280;8646;49.716;9.266;2023-05-02T04:47:20;100606.81;;;10.74;81.70
17060;BME280;8646;49.716;9.266;2023-05-02T04:50:24;100609.34;;;10.79;81.62
17060;BME280;8646;49.716;9.266;2023-05-02T04:53:28;100612.72;;;10.85;81.62
17060;BME280;8646;49.716;9.266;2023-05-02T04:56:31;100616.22;;;10.87;81.82
17060;BME280;8646;49.716;9.266;2023-05-02T04:59:34;100620.59;;;10.91;81.72
17060;BME280;8646;49.716;9.266;2023-05-02T05:02:36;100623.97;;;10.96;81.67
17060;BME280;8646;49.716;9.266;2023-05-02T05:05:42;100629.03;;;11.05;81.76
17060;BME280;8646;49.716;9.266;2023-05-02T05:08:45;100634.19;;;11.12;81.46
17060;BME280;8646;49.716;9.266;2023-05-02T05:11:48;100632.94;;;11.20;81.73
17060;BME280;8646;49.716;9.266;2023-05-02T05:14:50;100632.72;;;11.26;81.61
17060;BME280;8646;49.716;9.266;2023-05-02T05:17:53;100637.63;;;11.38;81.24
17060;BME280;8646;49.716;9.266;2023-05-02T05:20:57;100643.56;;;11.48;81.32
17060;BME280;8646;49.716;9.266;2023-05-02T05:24:00;100650.28;;;11.60;81.20
17060;BME280;8646;49.716;9.266;2023-05-02T05:27:03;100641.03;;;11.65;81.64
17060;BME280;8646;49.716;9.266;2023-05-02T05:30:06;100642.28;;;11.78;81.74
17060;BME280;8646;49.716;9.266;2023-05-02T05:33:10;100648.59;;;11.79;81.78
17060;BME280;8646;49.716;9.266;2023-05-02T05:36:15;100667.59;;;11.79;81.50
17060;BME280;8646;49.716;9.266;2023-05-02T05:39:17;100678.38;;;11.80;81.82
17060;BME280;8646;49.716;9.266;2023-05-02T05:42:20;100671.94;;;11.83;81.72
17060;BME280;8646;49.716;9.266;2023-05-02T05:45:23;100675.44;;;11.85;81.85
17060;BME280;8646;49.716;9.266;2023-05-02T05:48:26;100687.75;;;11.94;81.44
17060;BME280;8646;49.716;9.266;2023-05-02T05:51:30;100684.09;;;11.95;81.72
17060;BME280;8646;49.716;9.266;2023-05-02T05:54:32;100700.09;;;12.01;81.93
17060;BME280;8646;49.716;9.266;2023-05-02T05:57:35;100700.91;;;12.03;81.97
17060;BME280;8646;49.716;9.266;2023-05-02T06:00:39;100693.28;;;12.12;81.93
17060;BME280;8646;49.716;9.266;2023-05-02T06:03:43;100702.91;;;12.19;81.76
17060;BME280;8646;49.716;9.266;2023-05-02T06:06:48;100702.91;;;12.19;81.99
17060;BME280;8646;49.716;9.266;2023-05-02T06:09:52;100705.28;;;12.27;81.42
17060;BME280;8646;49.716;9.266;2023-05-02T06:12:58;100715.19;;;12.28;81.42
17060;BME280;8646;49.716;9.266;2023-05-02T06:16:01;100713.31;;;12.30;81.85
17060;BME280;8646;49.716;9.266;2023-05-02T06:19:04;100723.81;;;12.38;81.57
17060;BME280;8646;49.716;9.266;2023-05-02T06:22:10;100718.00;;;12.47;81.83
17060;BME280;8646;49.716;9.266;2023-05-02T06:25:13;100723.47;;;12.66;81.47
17060;BME280;8646;49.716;9.266;2023-05-02T06:28:16;100723.22;;;12.90;80.71
17060;BME280;8646;49.716;9.266;2023-05-02T06:31:19;100730.25;;;13.54;79.02
17060;BME280;8646;49.716;9.266;2023-05-02T06:34:22;100725.28;;;14.17;76.78
17060;BME280;8646;49.716;9.266;2023-05-02T06:37:26;100714.97;;;14.58;75.47
17060;BME280;8646;49.716;9.266;2023-05-02T06:40:29;100713.72;;;14.98;74.28
17060;BME280;8646;49.716;9.266;2023-05-02T06:43:31;100713.31;;;15.21;73.06
17060;BME280;8646;49.716;9.266;2023-05-02T06:46:34;100722.28;;;15.07;72.52
17060;BME280;8646;49.716;9.266;2023-05-02T06:49:37;100721.16;;;14.94;73.12
17060;BME280;8646;49.716;9.266;2023-05-02T06:52:41;100725.44;;;14.82;73.02
17060;BME280;8646;49.716;9.266;2023-05-02T06:55:44;100726.63;;;14.77;72.78
17060;BME280;8646;49.716;9.266;2023-05-02T06:58:48;100718.38;;;14.78;72.35
17060;BME280;8646;49.716;9.266;2023-05-02T07:01:51;100732.28;;;14.74;71.87
17060;BME280;8646;49.716;9.266;2023-05-02T07:04:54;100731.53;;;14.70;72.20
17060;BME280;8646;49.716;9.266;2023-05-02T07:07:58;100731.81;;;14.66;72.43
17060;BME280;8646;49.716;9.266;2023-05-02T07:11:01;100718.13;;;14.50;72.04
17060;BME280;8646;49.716;9.266;2023-05-02T07:14:04;100738.63;;;14.57;72.03
17060;BME280;8646;49.716;9.266;2023-05-02T07:17:07;100726.81;;;14.74;70.17
17060;BME280;8646;49.716;9.266;2023-05-02T07:20:10;100739.78;;;14.51;69.63
17060;BME280;8646;49.716;9.266;2023-05-02T07:23:14;100735.03;;;14.38;71.33
17060;BME280;8646;49.716;9.266;2023-05-02T07:26:17;100748.28;;;14.45;71.08
17060;BME280;8646;49.716;9.266;2023-05-02T07:29:20;100739.91;;;14.50;71.23
17060;BME280;8646;49.716;9.266;2023-05-02T07:32:23;100743.88;;;14.60;70.68
17060;BME280;8646;49.716;9.266;2023-05-02T07:35:27;100741.00;;;14.80;70.26
17060;BME280;8646;49.716;9.266;2023-05-02T07:38:31;100750.03;;;14.98;69.33
17060;BME280;8646;49.716;9.266;2023-05-02T07:41:37;100741.59;;;15.03;69.16
17060;BME280;8646;49.716;9.266;2023-05-02T07:44:40;100742.78;;;15.14;68.81
17060;BME280;8646;49.716;9.266;2023-05-02T07:47:44;100734.88;;;15.41;67.43
17060;BME280;8646;49.716;9.266;2023-05-02T07:50:46;100707.63;;;15.41;65.89
17060;BME280;8646;49.716;9.266;2023-05-02T07:53:51;100739.31;;;15.44;66.06
17060;BME280;8646;49.716;9.266;2023-05-02T07:56:56;100733.00;;;15.75;64.30
17060;BME280;8646;49.716;9.266;2023-05-02T08:00:04;100727.81;;;15.86;63.01
17060;BME280;8646;49.716;9.266;2023-05-02T08:03:11;100733.19;;;16.03;63.59
17060;BME280;8646;49.716;9.266;2023-05-02T08:06:14;100727.06;;;16.29;62.68
17060;BME280;8646;49.716;9.266;2023-05-02T08:09:18;100739.63;;;16.77;61.98
17060;BME280;8646;49.716;9.266;2023-05-02T08:12:21;100731.47;;;17.34;59.39
17060;BME280;8646;49.716;9.266;2023-05-02T08:15:24;100734.78;;;17.39;58.58
17060;BME280;8646;49.716;9.266;2023-05-02T08:18:27;100715.09;;;17.61;58.75
17060;BME280;8646;49.716;9.266;2023-05-02T08:21:29;100735.72;;;17.81;58.11
17060;BME280;8646;49.716;9.266;2023-05-02T08:24:34;100737.63;;;17.66;55.72
17060;BME280;8646;49.716;9.266;2023-05-02T08:27:36;100740.03;;;17.14;57.70
17060;BME280;8646;49.716;9.266;2023-05-02T08:30:39;100758.47;;;16.96;58.54
17060;BME280;8646;49.716;9.266;2023-05-02T08:33:42;100752.34;;;16.93;58.53
17060;BME280;8646;49.716;9.266;2023-05-02T08:36:45;100746.97;;;16.91;59.47
17060;BME280;8646;49.716;9.266;2023-05-02T08:39:50;100753.63;;;17.01;59.31
17060;BME280;8646;49.716;9.266;2023-05-02T08:43:02;100748.56;;;17.09;58.63
17060;BME280;8646;49.716;9.266;2023-05-02T08:46:06;100750.50;;;17.22;58.16
17060;BME280;8646;49.716;9.266;2023-05-02T08:49:09;100744.94;;;17.23;55.41
17060;BME280;8646;49.716;9.266;2023-05-02T08:52:13;100758.88;;;16.90;56.03
17060;BME280;8646;49.716;9.266;2023-05-02T08:55:19;100753.28;;;16.77;57.17
17060;BME280;8646;49.716;9.266;2023-05-02T08:58:28;100763.19;;;16.94;57.22
17060;BME280;8646;49.716;9.266;2023-05-02T09:01:32;100763.19;;;17.08;56.53
17060;BME280;8646;49.716;9.266;2023-05-02T09:04:40;100763.50;;;17.18;55.82
17060;BME280;8646;49.716;9.266;2023-05-02T09:07:44;100770.69;;;17.19;54.38
17060;BME280;8646;49.716;9.266;2023-05-02T09:10:49;100776.88;;;17.23;53.55
17060;BME280;8646;49.716;9.266;2023-05-02T09:13:52;100777.19;;;16.88;55.64
17060;BME280;8646;49.716;9.266;2023-05-02T09:16:57;100788.84;;;16.92;56.23
17060;BME280;8646;49.716;9.266;2023-05-02T09:20:01;100790.94;;;17.02;56.04
17060;BME280;8646;49.716;9.266;2023-05-02T09:23:04;100798.53;;;17.11;55.43
17060;BME280;8646;49.716;9.266;2023-05-02T09:26:16;100793.50;;;17.48;54.64
17060;BME280;8646;49.716;9.266;2023-05-02T09:29:19;100801.13;;;17.71;54.65
17060;BME280;8646;49.716;9.266;2023-05-02T09:32:43;100802.66;;;18.04;52.36
17060;BME280;8646;49.716;9.266;2023-05-02T09:35:52;100783.94;;;17.83;52.48
17060;BME280;8646;49.716;9.266;2023-05-02T09:39:08;100791.66;;;17.63;50.97
17060;BME280;8646;49.716;9.266;2023-05-02T09:42:29;100801.31;;;17.40;51.08
17060;BME280;8646;49.716;9.266;2023-05-02T09:45:36;100809.13;;;16.88;52.40
17060;BME280;8646;49.716;9.266;2023-05-02T09:48:52;100820.44;;;16.82;54.06
17060;BME280;8646;49.716;9.266;2023-05-02T09:52:08;100801.03;;;16.86;53.15
17060;BME280;8646;49.716;9.266;2023-05-02T09:55:20;100821.41;;;17.10;53.12
17060;BME280;8646;49.716;9.266;2023-05-02T09:58:24;100812.66;;;17.34;51.53
17060;BME280;8646;49.716;9.266;2023-05-02T10:01:27;100807.19;;;17.62;51.60
17060;BME280;8646;49.716;9.266;2023-05-02T10:04:32;100803.81;;;18.14;50.74
17060;BME280;8646;49.716;9.266;2023-05-02T10:07:35;100799.75;;;18.60;50.40
17060;BME280;8646;49.716;9.266;2023-05-02T10:10:40;100793.16;;;19.02;46.21
17060;BME280;8646;49.716;9.266;2023-05-02T10:13:46;100799.22;;;18.68;46.85
17060;BME280;8646;49.716;9.266;2023-05-02T10:16:56;100808.16;;;18.57;46.65
17060;BME280;8646;49.716;9.266;2023-05-02T10:20:04;100808.78;;;18.48;47.17
17060;BME280;8646;49.716;9.266;2023-05-02T10:23:08;100812.50;;;18.47;46.92
17060;BME280;8646;49.716;9.266;2023-05-02T10:26:15;100811.44;;;18.36;47.30
17060;BME280;8646;49.716;9.266;2023-05-02T10:29:20;100810.63;;;18.21;47.47
17060;BME280;8646;49.716;9.266;2023-05-02T10:32:26;100804.53;;;18.30;47.47
17060;BME280;8646;49.716;9.266;2023-05-02T10:35:31;100787.47;;;18.39;48.01
17060;BME280;8646;49.716;9.266;2023-05-02T10:38:34;100806.72;;;18.79;46.63
17060;BME280;8646;49.716;9.266;2023-05-02T10:41:38;100809.22;;;18.55;47.37
17060;BME280;8646;49.716;9.266;2023-05-02T10:44:44;100807.31;;;18.16;48.72
17060;BME280;8646;49.716;9.266;2023-05-02T10:47:47;100813.81;;;18.27;48.86
17060;BME280;8646;49.716;9.266;2023-05-02T10:50:51;100800.53;;;18.21;47.15
17060;BME280;8646;49.716;9.266;2023-05-02T10:54:17;100815.38;;;17.90;48.36
17060;BME280;8646;49.716;9.266;2023-05-02T10:57:23;100807.44;;;18.00;48.34
17060;BME280;8646;49.716;9.266;2023-05-02T11:00:28;100797.44;;;18.13;48.14
17060;BME280;8646;49.716;9.266;2023-05-02T11:03:53;100794.97;;;18.23;48.31
17060;BME280;8646;49.716;9.266;2023-05-02T11:07:16;100781.06;;;18.80;46.40
17060;BME280;8646;49.716;9.266;2023-05-02T11:10:24;100784.41;;;18.44;46.23
17060;BME280;8646;49.716;9.266;2023-05-02T11:13:49;100792.88;;;18.26;46.12
17060;BME280;8646;49.716;9.266;2023-05-02T11:17:09;100782.31;;;18.08;47.00
17060;BME280;8646;49.716;9.266;2023-05-02T11:20:27;100783.50;;;18.30;46.75
17060;BME280;8646;49.716;9.266;2023-05-02T11:23:30;100764.81;;;18.77;44.62
17060;BME280;8646;49.716;9.266;2023-05-02T11:26:34;100776.69;;;19.02;45.10
17060;BME280;8646;49.716;9.266;2023-05-02T11:29:52;100775.41;;;19.59;44.64
17060;BME280;8646;49.716;9.266;2023-05-02T11:33:16;100769.03;;;19.58;44.03
17060;BME280;8646;49.716;9.266;2023-05-02T11:36:27;100766.84;;;19.51;43.35
17060;BME280;8646;49.716;9.266;2023-05-02T11:39:30;100766.16;;;19.22;43.66
17060;BME280;8646;49.716;9.266;2023-05-02T11:42:33;100774.25;;;18.98;44.71
17060;BME280;8646;49.716;9.266;2023-05-02T11:45:36;100774.50;;;19.20;44.42
17060;BME280;8646;49.716;9.266;2023-05-02T11:48:41;100776.28;;;19.21;44.52
17060;BME280;8646;49.716;9.266;2023-05-02T11:51:43;100758.25;;;19.55;44.08
17060;BME280;8646;49.716;9.266;2023-05-02T11:54:47;100747.22;;;19.93;43.18
17060;BME280;8646;49.716;9.266;2023-05-02T11:57:50;100760.00;;;20.29;42.07
17060;BME280;8646;49.716;9.266;2023-05-02T12:00:53;100757.25;;;20.05;42.20
17060;BME280;8646;49.716;9.266;2023-05-02T12:04:04;100742.84;;;20.14;42.33
17060;BME280;8646;49.716;9.266;2023-05-02T12:07:08;100760.44;;;20.36;41.69
17060;BME280;8646;49.716;9.266;2023-05-02T12:10:13;100764.22;;;20.35;41.42
17060;BME280;8646;49.716;9.266;2023-05-02T12:13:16;100760.59;;;20.58;40.52
17060;BME280;8646;49.716;9.266;2023-05-02T12:16:19;100770.88;;;20.67;41.11
17060;BME280;8646;49.716;9.266;2023-05-02T12:19:23;100766.59;;;20.63;40.45
17060;BME280;8646;49.716;9.266;2023-05-02T12:22:27;100762.09;;;20.62;40.66
17060;BME280;8646;49.716;9.266;2023-05-02T12:25:30;100755.72;;;20.38;40.17
17060;BME280;8646;49.716;9.266;2023-05-02T12:28:46;100752.16;;;20.48;40.51
17060;BME280;8646;49.716;9.266;2023-05-02T12:31:50;100755.59;;;20.63;40.74
17060;BME280;8646;49.716;9.266;2023-05-02T12:34:54;100764.06;;;20.60;40.46
17060;BME280;8646;49.716;9.266;2023-05-02T12:38:08;100748.56;;;20.35;40.75
17060;BME280;8646;49.716;9.266;2023-05-02T12:41:11;100762.22;;;20.37;40.06
17060;BME280;8646;49.716;9.266;2023-05-02T12:44:14;100763.31;;;20.10;39.45
17060;BME280;8646;49.716;9.266;2023-05-02T12:47:18;100763.13;;;19.88;39.30
17060;BME280;8646;49.716;9.266;2023-05-02T12:50:35;100760.63;;;19.85;40.27
17060;BME280;8646;49.716;9.266;2023-05-02T12:53:40;100753.44;;;19.95;39.79
17060;BME280;8646;49.716;9.266;2023-05-02T12:56:44;100757.38;;;20.04;39.49
17060;BME280;8646;49.716;9.266;2023-05-02T12:59:46;100754.28;;;20.08;39.28
17060;BME280;8646;49.716;9.266;2023-05-02T13:02:49;100757.22;;;20.18;39.74
17060;BME280;8646;49.716;9.266;2023-05-02T13:05:54;100749.03;;;20.29;38.98
17060;BME280;8646;49.716;9.266;2023-05-02T13:08:57;100754.63;;;20.28;37.96
17060;BME280;8646;49.716;9.266;2023-05-02T13:12:01;100755.41;;;20.30;38.29
17060;BME280;8646;49.716;9.266;2023-05-02T13:15:06;100744.19;;;20.33;37.77
17060;BME280;8646;49.716;9.266;2023-05-02T13:18:09;100745.72;;;20.37;38.33
17060;BME280;8646;49.716;9.266;2023-05-02T13:21:14;100752.50;;;20.44;38.06
17060;BME280;8646;49.716;9.266;2023-05-02T13:24:16;100739.53;;;20.46;38.01
17060;BME280;8646;49.716;9.266;2023-05-02T13:27:22;100737.25;;;20.40;37.65
17060;BME280;8646;49.716;9.266;2023-05-02T13:30:25;100738.03;;;20.53;37.43
17060;BME280;8646;49.716;9.266;2023-05-02T13:33:27;100734.03;;;20.46;37.84
17060;BME280;8646;49.716;9.266;2023-05-02T13:36:31;100733.97;;;20.59;38.03
17060;BME280;8646;49.716;9.266;2023-05-02T13:39:34;100739.59;;;20.68;37.45
17060;BME280;8646;49.716;9.266;2023-05-02T13:42:37;100737.22;;;20.64;37.37
17060;BME280;8646;49.716;9.266;2023-05-02T13:45:41;100737.38;;;20.73;36.62
17060;BME280;8646;49.716;9.266;2023-05-02T13:48:58;100737.34;;;20.62;37.06
17060;BME280;8646;49.716;9.266;2023-05-02T13:52:03;100738.72;;;20.68;37.41
17060;BME280;8646;49.716;9.266;2023-05-02T13:55:06;100738.88;;;20.77;36.67
17060;BME280;8646;49.716;9.266;2023-05-02T13:58:09;100737.59;;;20.70;36.73
17060;BME280;8646;49.716;9.266;2023-05-02T14:01:12;100750.38;;;20.71;37.12
17060;BME280;8646;49.716;9.266;2023-05-02T14:04:22;100741.78;;;20.87;37.06
17060;BME280;8646;49.716;9.266;2023-05-02T14:07:26;100739.59;;;20.68;37.56
17060;BME280;8646;49.716;9.266;2023-05-02T14:10:29;100741.97;;;20.62;38.25
17060;BME280;8646;49.716;9.266;2023-05-02T14:13:32;100740.25;;;20.72;37.82
17060;BME280;8646;49.716;9.266;2023-05-02T14:16:35;100749.50;;;20.71;37.89
17060;BME280;8646;49.716;9.266;2023-05-02T14:19:38;100740.19;;;20.61;35.23
17060;BME280;8646;49.716;9.266;2023-05-02T14:22:42;100739.84;;;20.65;35.60
17060;BME280;8646;49.716;9.266;2023-05-02T14:25:45;100726.81;;;20.91;35.05
17060;BME280;8646;49.716;9.266;2023-05-02T14:28:49;100744.94;;;20.93;34.23
17060;BME280;8646;49.716;9.266;2023-05-02T14:31:51;100737.00;;;20.78;34.60
17060;BME280;8646;49.716;9.266;2023-05-02T14:34:54;100747.69;;;20.93;34.92
17060;BME280;8646;49.716;9.266;2023-05-02T14:37:58;100748.13;;;20.76;35.19
17060;BME280;8646;49.716;9.266;2023-05-02T14:41:01;100745.03;;;20.81;35.31
17060;BME280;8646;49.716;9.266;2023-05-02T14:44:04;100751.72;;;20.66;36.24
17060;BME280;8646;49.716;9.266;2023-05-02T14:47:07;100755.69;;;20.62;37.22
17060;BME280;8646;49.716;9.266;2023-05-02T14:50:10;100757.06;;;20.56;37.96
17060;BME280;8646;49.716;9.266;2023-05-02T14:53:16;100760.84;;;20.18;38.72
17060;BME280;8646;49.716;9.266;2023-05-02T14:56:26;100763.00;;;20.02;39.08
17060;BME280;8646;49.716;9.266;2023-05-02T14:59:30;100775.66;;;19.92;39.26
17060;BME280;8646;49.716;9.266;2023-05-02T15:02:32;100793.03;;;19.93;39.75
17060;BME280;8646;49.716;9.266;2023-05-02T15:05:36;100785.91;;;19.65;39.86
17060;BME280;8646;49.716;9.266;2023-05-02T15:08:40;100781.72;;;19.47;40.36
17060;BME280;8646;49.716;9.266;2023-05-02T15:11:44;100782.50;;;19.23;40.39
17060;BME280;8646;49.716;9.266;2023-05-02T15:14:47;100798.66;;;19.28;40.77
17060;BME280;8646;49.716;9.266;2023-05-02T15:17:50;100782.41;;;19.12;40.73
17060;BME280;8646;49.716;9.266;2023-05-02T15:20:53;100807.50;;;19.06;41.63
17060;BME280;8646;49.716;9.266;2023-05-02T15:23:57;100815.72;;;19.06;41.74
17060;BME280;8646;49.716;9.266;2023-05-02T15:27:01;100815.63;;;19.08;41.83
17060;BME280;8646;49.716;9.266;2023-05-02T15:30:05;100821.78;;;19.11;41.93
17060;BME280;8646;49.716;9.266;2023-05-02T15:33:08;100821.25;;;19.19;41.29
17060;BME280;8646;49.716;9.266;2023-05-02T15:36:11;100826.00;;;19.29;41.29
17060;BME280;8646;49.716;9.266;2023-05-02T15:39:16;100815.47;;;19.49;41.21
17060;BME280;8646;49.716;9.266;2023-05-02T15:42:19;100821.09;;;19.60;41.57
17060;BME280;8646;49.716;9.266;2023-05-02T15:45:22;100829.81;;;19.27;41.43
17060;BME280;8646;49.716;9.266;2023-05-02T15:48:26;100831.22;;;19.07;41.52
17060;BME280;8646;49.716;9.266;2023-05-02T15:51:29;100835.03;;;18.92;40.91
17060;BME280;8646;49.716;9.266;2023-05-02T15:54:34;100839.59;;;18.79;41.42
17060;BME280;8646;49.716;9.266;2023-05-02T15:57:37;100845.16;;;18.64;41.10
17060;BME280;8646;49.716;9.266;2023-05-02T16:00:40;100845.91;;;18.66;41.20
17060;BME280;8646;49.716;9.266;2023-05-02T16:03:43;100842.28;;;18.66;41.37
17060;BME280;8646;49.716;9.266;2023-05-02T16:06:46;100850.94;;;18.60;41.77
17060;BME280;8646;49.716;9.266;2023-05-02T16:09:50;100856.13;;;18.50;41.97
17060;BME280;8646;49.716;9.266;2023-05-02T16:12:54;100853.69;;;18.60;42.32
17060;BME280;8646;49.716;9.266;2023-05-02T16:15:56;100854.91;;;18.68;41.35
17060;BME280;8646;49.716;9.266;2023-05-02T16:18:59;100877.28;;;18.48;42.39
17060;BME280;8646;49.716;9.266;2023-05-02T16:22:02;100872.25;;;18.28;42.70